createdAt,value
2022-09-28T00:01:16.444Z,7.70
2022-09-28T00:03:43.773Z,7.70
2022-09-28T00:06:13.082Z,7.70
2022-09-28T00:08:40.657Z,7.70
2022-09-28T00:11:12.308Z,7.70
2022-09-28T00:13:40.395Z,7.70
2022-09-28T00:16:11.333Z,7.60
2022-09-28T00:18:38.467Z,7.60
2022-09-28T00:21:09.500Z,7.60
2022-09-28T00:23:57.436Z,7.50
2022-09-28T00:26:25.063Z,7.60
2022-09-28T00:28:53.411Z,7.50
2022-09-28T00:31:20.884Z,7.50
2022-09-28T00:33:56.776Z,7.50
2022-09-28T00:36:24.667Z,7.50
2022-09-28T00:38:52.222Z,7.50
2022-09-28T00:41:19.147Z,7.50
2022-09-28T00:43:46.164Z,7.50
2022-09-28T00:46:32.436Z,7.40
2022-09-28T00:49:07.681Z,7.40
2022-09-28T00:51:37.992Z,7.40
2022-09-28T00:54:07.482Z,7.40
2022-09-28T00:56:40.324Z,7.40
2022-09-28T00:59:08.932Z,7.40
2022-09-28T01:01:36.214Z,7.30
2022-09-28T01:04:05.004Z,7.30
2022-09-28T01:06:35.734Z,7.30
2022-09-28T01:09:07.436Z,7.20
2022-09-28T01:11:37.933Z,7.20
2022-09-28T01:14:10.075Z,7.10
2022-09-28T01:16:45.783Z,7.10
2022-09-28T01:19:23.014Z,7.00
2022-09-28T01:22:05.740Z,7.00
2022-09-28T01:24:49.086Z,7.00
2022-09-28T01:27:21.012Z,7.00
2022-09-28T01:30:03.942Z,7.00
2022-09-28T01:32:55.783Z,7.00
2022-09-28T01:35:31.742Z,7.00
2022-09-28T01:38:19.763Z,7.00
2022-09-28T01:40:48.141Z,7.00
2022-09-28T01:43:22.461Z,7.00
2022-09-28T01:45:58.582Z,7.00
2022-09-28T01:48:32.012Z,7.00
2022-09-28T01:51:02.132Z,7.10
2022-09-28T01:53:36.573Z,7.10
2022-09-28T01:56:12.647Z,7.10
2022-09-28T01:58:42.653Z,7.10
2022-09-28T02:01:23.433Z,7.20
2022-09-28T02:03:56.923Z,7.20
2022-09-28T02:06:33.614Z,7.20
2022-09-28T02:09:08.105Z,7.20
2022-09-28T02:11:48.080Z,7.20
2022-09-28T02:14:17.685Z,7.20
2022-09-28T02:16:49.452Z,7.20
2022-09-28T02:19:27.542Z,7.20
2022-09-28T02:22:01.756Z,7.20
2022-09-28T02:24:37.909Z,7.20
2022-09-28T02:27:35.277Z,7.20
2022-09-28T02:30:04.600Z,7.20
2022-09-28T02:32:35.110Z,7.20
2022-09-28T02:35:02.243Z,7.20
2022-09-28T02:37:29.433Z,7.20
2022-09-28T02:39:56.640Z,7.30
2022-09-28T02:43:00.966Z,7.20
2022-09-28T02:45:47.084Z,7.30
2022-09-28T02:48:27.199Z,7.20
2022-09-28T02:51:03.482Z,7.30
2022-09-28T02:53:48.613Z,7.30
2022-09-28T02:56:51.454Z,7.30
2022-09-28T02:59:36.899Z,7.30
2022-09-28T03:02:24.761Z,7.30
2022-09-28T03:05:16.301Z,7.30
2022-09-28T03:08:00.449Z,7.30
2022-09-28T03:10:39.980Z,7.30
2022-09-28T03:13:08.651Z,7.30
2022-09-28T03:15:36.737Z,7.30
2022-09-28T03:18:03.751Z,7.30
2022-09-28T03:20:32.391Z,7.20
2022-09-28T03:23:23.427Z,7.20
2022-09-28T03:25:47.773Z,7.20
2022-09-28T03:28:15.022Z,7.20
2022-09-28T03:30:43.512Z,7.20
2022-09-28T03:33:11.249Z,7.20
2022-09-28T03:35:38.937Z,7.20
2022-09-28T03:38:05.757Z,7.20
2022-09-28T03:40:37.359Z,7.20
2022-09-28T03:43:04.370Z,7.20
2022-09-28T03:45:31.335Z,7.20
2022-09-28T03:47:58.579Z,7.20
2022-09-28T03:50:25.594Z,7.20
2022-09-28T03:52:52.656Z,7.20
2022-09-28T03:55:19.611Z,7.10
2022-09-28T03:57:54.954Z,7.10
2022-09-28T04:00:21.999Z,7.10
2022-09-28T04:02:48.924Z,7.10
2022-09-28T04:05:16.119Z,7.10
2022-09-28T04:07:42.948Z,7.10
2022-09-28T04:10:10.002Z,7.10
2022-09-28T04:12:36.930Z,7.10
2022-09-28T04:15:05.832Z,7.10
2022-09-28T04:17:36.470Z,7.10
2022-09-28T04:20:09.819Z,7.20
2022-09-28T04:22:40.117Z,7.20
2022-09-28T04:25:07.438Z,7.20
2022-09-28T04:27:53.332Z,7.20
2022-09-28T04:30:20.688Z,7.20
2022-09-28T04:32:47.905Z,7.20
2022-09-28T04:35:15.577Z,7.20
2022-09-28T04:37:42.438Z,7.20
2022-09-28T04:40:09.494Z,7.20
2022-09-28T04:42:37.752Z,7.20
2022-09-28T04:45:05.121Z,7.20
2022-09-28T04:47:35.267Z,7.20
2022-09-28T04:50:20.626Z,7.20
2022-09-28T04:53:05.920Z,7.20
2022-09-28T04:55:32.930Z,7.20
2022-09-28T04:58:03.362Z,7.20
2022-09-28T05:00:34.704Z,7.20
2022-09-28T05:03:31.289Z,7.20
2022-09-28T05:06:15.494Z,7.20
2022-09-28T05:08:47.775Z,7.20
2022-09-28T05:11:16.336Z,7.20
2022-09-28T05:13:45.072Z,7.30
2022-09-28T05:16:16.252Z,7.20
2022-09-28T05:19:10.555Z,7.20
2022-09-28T05:21:38.103Z,7.20
2022-09-28T05:24:07.504Z,7.20
2022-09-28T05:26:36.450Z,7.30
2022-09-28T05:29:05.005Z,7.30
2022-09-28T05:31:50.542Z,7.30
2022-09-28T05:34:43.534Z,7.30
2022-09-28T05:37:16.742Z,7.30
2022-09-28T05:39:45.431Z,7.30
2022-09-28T05:42:12.514Z,7.40
2022-09-28T05:44:39.490Z,7.40
2022-09-28T05:47:06.466Z,7.40
2022-09-28T05:49:33.389Z,7.40
2022-09-28T05:52:01.783Z,7.40
2022-09-28T05:54:28.858Z,7.40
2022-09-28T05:56:55.796Z,7.40
2022-09-28T05:59:22.832Z,7.50
2022-09-28T06:01:50.076Z,7.50
2022-09-28T06:04:17.442Z,7.50
2022-09-28T06:06:45.963Z,7.50
2022-09-28T06:09:13.263Z,7.50
2022-09-28T06:12:02.561Z,7.60
2022-09-28T06:14:38.884Z,7.60
2022-09-28T06:17:06.047Z,7.60
2022-09-28T06:19:32.983Z,7.60
2022-09-28T06:22:08.267Z,7.60
2022-09-28T06:24:43.629Z,7.70
2022-09-28T06:27:10.663Z,7.70
2022-09-28T06:29:37.675Z,7.70
2022-09-28T06:32:04.604Z,7.70
2022-09-28T06:34:31.433Z,7.70
2022-09-28T06:36:58.939Z,7.70
2022-09-28T06:39:25.786Z,7.80
2022-09-28T06:41:52.820Z,7.80
2022-09-28T06:44:21.282Z,7.80
2022-09-28T06:47:08.530Z,7.80
2022-09-28T06:49:55.311Z,7.90
2022-09-28T06:52:41.009Z,7.90
2022-09-28T06:55:50.454Z,7.90
2022-09-28T06:58:19.973Z,8.00
2022-09-28T07:00:49.741Z,8.00
2022-09-28T07:03:21.753Z,8.10
2022-09-28T07:06:11.631Z,8.10
2022-09-28T07:09:09.035Z,8.20
2022-09-28T07:12:01.209Z,8.20
2022-09-28T07:14:47.876Z,8.30
2022-09-28T07:17:16.178Z,8.30
2022-09-28T07:19:44.606Z,8.40
2022-09-28T07:22:18.390Z,8.40
2022-09-28T07:24:47.918Z,8.40
2022-09-28T07:27:47.213Z,8.40
2022-09-28T07:30:33.163Z,8.50
2022-09-28T07:33:20.423Z,8.50
2022-09-28T07:35:55.475Z,8.50
2022-09-28T07:38:29.231Z,8.50
2022-09-28T07:41:12.631Z,8.60
2022-09-28T07:43:45.188Z,8.60
2022-09-28T07:46:12.589Z,8.60
2022-09-28T07:48:46.052Z,8.70
2022-09-28T07:51:33.057Z,8.70
2022-09-28T07:54:23.658Z,8.70
2022-09-28T07:57:09.502Z,8.70
2022-09-28T07:59:45.373Z,8.70
2022-09-28T08:02:48.430Z,8.80
2022-09-28T08:05:22.408Z,8.80
2022-09-28T08:07:49.404Z,8.80
2022-09-28T08:10:17.389Z,8.90
2022-09-28T08:13:06.377Z,8.90
2022-09-28T08:15:37.044Z,8.90
2022-09-28T08:18:26.666Z,9.00
2022-09-28T08:21:12.272Z,9.00
2022-09-28T08:23:39.637Z,9.00
2022-09-28T08:26:07.419Z,9.10
2022-09-28T08:28:39.123Z,9.10
2022-09-28T08:31:26.285Z,9.10
2022-09-28T08:34:19.764Z,9.20
2022-09-28T08:37:10.530Z,9.20
2022-09-28T08:40:04.065Z,9.30
2022-09-28T08:42:52.032Z,9.30
2022-09-28T08:45:35.925Z,9.30
2022-09-28T08:48:56.171Z,9.30
2022-09-28T08:52:05.324Z,9.30
2022-09-28T08:54:57.733Z,9.30
2022-09-28T08:57:51.118Z,9.40
2022-09-28T09:00:35.462Z,9.40
2022-09-28T09:03:29.026Z,9.40
2022-09-28T09:06:48.301Z,9.40
2022-09-28T09:10:19.530Z,9.40
2022-09-28T09:13:20.064Z,9.40
2022-09-28T09:16:15.176Z,9.40
2022-09-28T09:19:28.475Z,9.40
2022-09-28T09:22:30.323Z,9.40
2022-09-28T09:25:20.383Z,9.40
2022-09-28T09:28:04.738Z,9.40
2022-09-28T09:30:52.133Z,9.40
2022-09-28T09:33:47.609Z,9.40
2022-09-28T09:36:41.202Z,9.50
2022-09-28T09:40:26.250Z,9.50
2022-09-28T09:44:04.178Z,9.50
2022-09-28T09:47:11.616Z,9.60
2022-09-28T09:50:05.364Z,9.60
2022-09-28T09:53:10.858Z,9.60
2022-09-28T09:55:50.469Z,9.60
2022-09-28T09:58:37.176Z,9.70
2022-09-28T10:01:39.203Z,9.70
2022-09-28T10:04:29.242Z,9.70
2022-09-28T10:07:09.127Z,9.80
2022-09-28T10:09:45.985Z,9.80
2022-09-28T10:12:39.820Z,9.70
2022-09-28T10:15:08.231Z,9.70
2022-09-28T10:17:48.103Z,9.70
2022-09-28T10:20:42.856Z,9.80
2022-09-28T10:23:33.901Z,9.80
2022-09-28T10:26:05.970Z,9.90
2022-09-28T10:28:45.398Z,9.90
2022-09-28T10:31:43.580Z,9.90
2022-09-28T10:34:25.090Z,9.90
2022-09-28T10:37:03.450Z,9.90
2022-09-28T10:39:53.582Z,10.00
2022-09-28T10:42:25.643Z,10.00
2022-09-28T10:45:17.148Z,10.00
2022-09-28T10:47:45.201Z,10.00
2022-09-28T10:50:26.699Z,10.00
2022-09-28T10:53:20.684Z,10.00
2022-09-28T10:56:22.245Z,10.00
2022-09-28T10:58:55.921Z,9.90
2022-09-28T11:01:33.526Z,9.90
2022-09-28T11:04:04.182Z,9.90
2022-09-28T11:06:32.865Z,9.90
2022-09-28T11:09:29.793Z,10.00
2022-09-28T11:12:03.214Z,10.00
2022-09-28T11:14:41.313Z,10.00
2022-09-28T11:17:27.864Z,10.10
2022-09-28T11:22:37.902Z,10.10
2022-09-28T11:25:22.060Z,10.10
2022-09-28T11:27:52.141Z,10.10
2022-09-28T11:30:23.397Z,10.10
2022-09-28T11:33:26.132Z,10.10
2022-09-28T11:36:17.141Z,10.10
2022-09-28T11:39:11.712Z,10.00
2022-09-28T11:42:05.454Z,10.00
2022-09-28T11:44:46.371Z,9.90
2022-09-28T11:47:48.904Z,9.90
2022-09-28T11:50:24.091Z,9.90
2022-09-28T11:53:13.924Z,9.90
2022-09-28T11:55:57.068Z,9.80
2022-09-28T11:58:35.189Z,9.90
2022-09-28T12:01:18.943Z,9.80
2022-09-28T12:04:12.364Z,9.80
2022-09-28T12:06:49.676Z,9.80
2022-09-28T12:09:41.296Z,9.80
2022-09-28T12:12:44.195Z,9.80
2022-09-28T12:16:07.459Z,9.70
2022-09-28T12:18:50.417Z,9.70
2022-09-28T12:21:56.152Z,9.70
2022-09-28T12:24:46.007Z,9.70
2022-09-28T12:27:38.683Z,9.60
2022-09-28T12:30:16.911Z,9.60
2022-09-28T12:32:53.538Z,9.60
2022-09-28T12:35:29.377Z,9.60
2022-09-28T12:38:28.098Z,9.60
2022-09-28T12:41:29.352Z,9.60
2022-09-28T12:44:03.977Z,9.50
2022-09-28T12:46:46.375Z,9.50
2022-09-28T12:52:36.533Z,9.50
2022-09-28T12:55:12.346Z,9.40
2022-09-28T12:57:59.861Z,9.40
2022-09-28T13:00:41.064Z,9.50
2022-09-28T13:03:31.846Z,9.40
2022-09-28T13:06:24.080Z,9.40
2022-09-28T13:09:09.138Z,9.50
2022-09-28T13:11:53.680Z,9.50
2022-09-28T13:14:43.391Z,9.50
2022-09-28T13:17:40.565Z,9.50
2022-09-28T13:20:32.168Z,9.50
2022-09-28T13:23:20.277Z,9.50
2022-09-28T13:26:07.211Z,9.50
2022-09-28T13:28:37.353Z,9.50
2022-09-28T13:31:05.410Z,9.60
2022-09-28T13:33:41.485Z,9.60
2022-09-28T13:36:27.576Z,9.60
2022-09-28T13:38:56.248Z,9.60
2022-09-28T13:41:28.909Z,9.60
2022-09-28T13:44:07.766Z,9.60
2022-09-28T13:47:01.239Z,9.60
2022-09-28T13:49:49.240Z,9.60
2022-09-28T13:52:36.988Z,9.60
2022-09-28T13:55:19.313Z,9.60
2022-09-28T13:57:52.397Z,9.60
2022-09-28T14:00:28.160Z,9.60
2022-09-28T14:03:15.057Z,9.70
2022-09-28T14:06:09.575Z,9.70
2022-09-28T14:09:05.144Z,9.70
2022-09-28T14:11:35.304Z,9.60
2022-09-28T14:14:24.078Z,9.60
2022-09-28T14:17:00.285Z,9.60
2022-09-28T14:19:34.218Z,9.50
2022-09-28T14:22:21.734Z,9.50
2022-09-28T14:25:00.880Z,9.50
2022-09-28T14:27:57.484Z,9.40
2022-09-28T14:30:47.794Z,9.40
2022-09-28T14:33:20.695Z,9.40
2022-09-28T14:35:58.315Z,9.30
2022-09-28T14:38:54.220Z,9.20
2022-09-28T14:41:31.373Z,9.20
2022-09-28T14:44:07.153Z,9.10
2022-09-28T14:46:40.459Z,9.10
2022-09-28T14:49:19.778Z,9.10
2022-09-28T14:51:58.421Z,9.00
2022-09-28T14:54:29.657Z,9.00
2022-09-28T14:57:08.175Z,9.00
2022-09-28T14:59:43.034Z,8.90
2022-09-28T15:02:17.457Z,8.90
2022-09-28T15:04:50.296Z,8.80
2022-09-28T15:07:24.078Z,8.70
2022-09-28T15:09:58.430Z,8.70
2022-09-28T15:12:30.495Z,8.60
2022-09-28T15:15:08.533Z,8.40
2022-09-28T15:17:40.289Z,8.30
2022-09-28T15:20:36.655Z,8.30
2022-09-28T15:23:03.941Z,8.20
2022-09-28T15:25:32.830Z,8.10
2022-09-28T15:28:04.625Z,8.10
2022-09-28T15:30:33.697Z,8.10
2022-09-28T15:33:21.732Z,8.00
2022-09-28T15:36:02.411Z,8.00
2022-09-28T15:38:32.414Z,8.00
2022-09-28T15:41:04.613Z,8.10
2022-09-28T15:43:34.183Z,8.00
2022-09-28T15:46:11.748Z,8.00
2022-09-28T15:48:59.321Z,8.00
2022-09-28T15:51:28.641Z,8.00
2022-09-28T15:54:17.700Z,8.00
2022-09-28T15:57:05.239Z,8.00
2022-09-28T15:59:39.336Z,8.00
2022-09-28T16:02:22.662Z,8.00
2022-09-28T16:04:56.758Z,8.00
2022-09-28T16:07:24.011Z,7.90
2022-09-28T16:09:59.982Z,8.00
2022-09-28T16:12:54.057Z,7.90
2022-09-28T16:15:28.549Z,8.00
2022-09-28T16:18:02.868Z,8.00
2022-09-28T16:20:35.559Z,8.00
2022-09-28T16:23:17.897Z,8.00
2022-09-28T16:26:08.482Z,8.00
2022-09-28T16:28:45.941Z,8.00
2022-09-28T16:31:12.785Z,8.00
2022-09-28T16:34:11.375Z,8.00
2022-09-28T16:36:45.585Z,8.00
2022-09-28T16:39:14.293Z,7.90
2022-09-28T16:41:44.241Z,7.90
2022-09-28T16:44:19.453Z,7.80
2022-09-28T16:46:46.773Z,7.80
2022-09-28T16:49:19.489Z,7.70
2022-09-28T16:51:47.428Z,7.70
2022-09-28T16:54:38.478Z,7.70
2022-09-28T16:57:08.315Z,7.70
2022-09-28T16:59:38.434Z,7.70
2022-09-28T17:02:45.321Z,7.70
2022-09-28T17:05:07.950Z,7.60
2022-09-28T17:07:35.297Z,7.60
2022-09-28T17:10:02.545Z,7.60
2022-09-28T17:12:29.796Z,7.60
2022-09-28T17:14:56.519Z,7.60
2022-09-28T17:17:24.226Z,7.60
2022-09-28T17:19:51.038Z,7.60
2022-09-28T17:22:18.359Z,7.60
2022-09-28T17:24:46.137Z,7.60
2022-09-28T17:27:19.051Z,7.60
2022-09-28T17:29:46.189Z,7.60
2022-09-28T17:32:18.776Z,7.60
2022-09-28T17:34:56.023Z,7.50
2022-09-28T17:37:28.536Z,7.50
2022-09-28T17:39:55.365Z,7.50
2022-09-28T17:42:22.192Z,7.50
2022-09-28T17:44:49.271Z,7.50
2022-09-28T17:47:17.051Z,7.50
2022-09-28T17:49:46.103Z,7.50
2022-09-28T17:52:13.683Z,7.50
2022-09-28T17:54:40.637Z,7.50
2022-09-28T17:57:09.857Z,7.40
2022-09-28T17:59:36.661Z,7.50
2022-09-28T18:02:03.587Z,7.40
2022-09-28T18:04:50.915Z,7.40
2022-09-28T18:07:17.470Z,7.40
2022-09-28T18:09:44.525Z,7.40
2022-09-28T18:12:11.695Z,7.40
2022-09-28T18:14:40.045Z,7.40
2022-09-28T18:17:07.397Z,7.40
2022-09-28T18:19:35.009Z,7.40
2022-09-28T18:22:02.093Z,7.30
2022-09-28T18:24:29.468Z,7.30
2022-09-28T18:26:56.496Z,7.30
2022-09-28T18:29:23.635Z,7.30
2022-09-28T18:31:50.623Z,7.20
2022-09-28T18:34:17.892Z,7.20
2022-09-28T18:36:45.523Z,7.20
2022-09-28T18:39:12.594Z,7.20
2022-09-28T18:41:39.841Z,7.20
2022-09-28T18:44:06.786Z,7.10
2022-09-28T18:46:36.744Z,7.10
2022-09-28T18:49:04.665Z,7.20
2022-09-28T18:51:31.694Z,7.20
2022-09-28T18:53:58.836Z,7.20
2022-09-28T18:56:26.854Z,7.20
2022-09-28T18:58:53.880Z,7.20
2022-09-28T19:01:30.695Z,7.20
2022-09-28T19:04:07.414Z,7.20
2022-09-28T19:06:37.149Z,7.20
2022-09-28T19:09:04.418Z,7.10
2022-09-28T19:11:31.664Z,7.10
2022-09-28T19:13:58.596Z,7.20
2022-09-28T19:16:30.525Z,7.10
2022-09-28T19:18:58.330Z,7.10
2022-09-28T19:21:26.702Z,7.20
2022-09-28T19:23:55.685Z,7.10
2022-09-28T19:26:25.295Z,7.10
2022-09-28T19:28:52.458Z,7.10
2022-09-28T19:31:20.124Z,7.10
2022-09-28T19:33:48.219Z,7.00
2022-09-28T19:36:24.129Z,7.00
2022-09-28T19:38:52.933Z,7.00
2022-09-28T19:41:43.555Z,7.00
2022-09-28T19:44:21.241Z,7.00
2022-09-28T19:46:48.268Z,7.00
2022-09-28T19:49:19.594Z,6.90
2022-09-28T19:52:11.957Z,6.90
2022-09-28T19:54:38.168Z,6.90
2022-09-28T19:57:08.195Z,6.90
2022-09-28T19:59:37.078Z,6.90
2022-09-28T20:02:08.381Z,6.90
2022-09-28T20:04:35.595Z,6.90
2022-09-28T20:07:03.233Z,6.90
2022-09-28T20:09:30.287Z,6.90
2022-09-28T20:11:57.392Z,6.90
2022-09-28T20:14:25.890Z,6.90
2022-09-28T20:16:55.334Z,6.90
2022-09-28T20:19:23.259Z,6.90
2022-09-28T20:21:50.978Z,6.90
2022-09-28T20:24:18.218Z,6.90
2022-09-28T20:26:46.164Z,6.90
2022-09-28T20:29:13.590Z,6.90
2022-09-28T20:31:40.722Z,6.90
2022-09-28T20:34:07.953Z,6.80
2022-09-28T20:36:35.204Z,6.90
2022-09-28T20:39:03.089Z,6.90
2022-09-28T20:41:35.647Z,6.90
2022-09-28T20:44:15.061Z,6.90
2022-09-28T20:46:44.348Z,6.90
2022-09-28T20:49:11.442Z,6.80
2022-09-28T20:51:38.284Z,6.80
2022-09-28T20:54:05.197Z,6.80
2022-09-28T20:56:37.781Z,6.80
2022-09-28T20:59:10.102Z,6.80
2022-09-28T21:01:37.415Z,6.70
2022-09-28T21:04:06.468Z,6.70
2022-09-28T21:06:39.008Z,6.70
2022-09-28T21:09:07.799Z,6.70
2022-09-28T21:11:35.756Z,6.70
2022-09-28T21:14:06.339Z,6.70
2022-09-28T21:16:34.700Z,6.70
2022-09-28T21:19:01.921Z,6.70
2022-09-28T21:21:28.868Z,6.70
2022-09-28T21:23:57.079Z,6.70
2022-09-28T21:26:29.504Z,6.70
2022-09-28T21:29:01.081Z,6.70
2022-09-28T21:31:32.552Z,6.70
2022-09-28T21:33:59.780Z,6.70
2022-09-28T21:36:26.605Z,6.60
2022-09-28T21:38:54.495Z,6.60
2022-09-28T21:41:21.752Z,6.60
2022-09-28T21:43:48.678Z,6.60
2022-09-28T21:46:15.487Z,6.60
2022-09-28T21:48:42.373Z,6.60
2022-09-28T21:51:11.059Z,6.60
2022-09-28T21:53:38.803Z,6.50
2022-09-28T21:56:09.252Z,6.50
2022-09-28T21:58:36.800Z,6.50
2022-09-28T22:01:25.436Z,6.50
2022-09-28T22:03:56.704Z,6.50
2022-09-28T22:06:27.995Z,6.50
2022-09-28T22:08:55.413Z,6.50
2022-09-28T22:11:24.936Z,6.50
2022-09-28T22:13:54.203Z,6.50
2022-09-28T22:16:23.754Z,6.50
2022-09-28T22:18:51.188Z,6.50
2022-09-28T22:21:26.687Z,6.50
2022-09-28T22:23:53.984Z,6.50
2022-09-28T22:26:23.830Z,6.50
2022-09-28T22:28:59.231Z,6.50
2022-09-28T22:31:32.833Z,6.50
2022-09-28T22:34:00.205Z,6.50
2022-09-28T22:36:27.461Z,6.50
2022-09-28T22:38:55.523Z,6.50
2022-09-28T22:41:22.772Z,6.50
2022-09-28T22:43:51.955Z,6.50
2022-09-28T22:46:22.351Z,6.50
2022-09-28T22:48:52.718Z,6.50
2022-09-28T22:51:21.007Z,6.50
2022-09-28T22:53:47.938Z,6.50
2022-09-28T22:56:18.682Z,6.50
2022-09-28T22:58:46.847Z,6.50
2022-09-28T23:01:14.854Z,6.50
2022-09-28T23:03:42.487Z,6.40
2022-09-28T23:06:10.961Z,6.40
2022-09-28T23:08:38.712Z,6.40
2022-09-28T23:11:06.407Z,6.40
2022-09-28T23:13:33.734Z,6.40
2022-09-28T23:16:04.335Z,6.40
2022-09-28T23:18:34.507Z,6.40
2022-09-28T23:21:15.980Z,6.40
2022-09-28T23:23:43.873Z,6.40
2022-09-28T23:26:16.215Z,6.40
2022-09-28T23:28:43.475Z,6.30
2022-09-28T23:31:20.686Z,6.30
2022-09-28T23:33:47.708Z,6.30
2022-09-28T23:36:15.583Z,6.30
2022-09-28T23:38:42.727Z,6.30
2022-09-28T23:41:10.497Z,6.30
2022-09-28T23:43:37.536Z,6.30
2022-09-28T23:46:05.091Z,6.30
2022-09-28T23:48:32.325Z,6.40
2022-09-28T23:50:59.711Z,6.40
2022-09-28T23:53:26.992Z,6.40
2022-09-28T23:55:54.417Z,6.40
2022-09-28T23:58:21.779Z,6.40
